Time;durP1;ratioP1;P1;durP2;ratioP2;P2;SDS_P1;SDS_P2;PMS_P1;PMS_P2;Temp;Humidity;BMP_temperature;BMP_pressure;BME280_temperature;BME280_humidity;BME280_pressure;Samples;Min_cycle;Max_cycle;Signal;HPM_P1;HPM_P2
2021/11/24 00:01:49;;;;;;;31.57;13.80;;;-1.00;99.90;;;;;;4123204;28;20744;-61
2021/11/24 00:03:50;;;;;;;23.90;11.90;;;-1.00;99.90;;;;;;4122881;28;20322;-61
2021/11/24 00:05:52;;;;;;;20.43;10.90;;;-1.00;99.90;;;;;;4123367;28;20280;-62
2021/11/24 00:07:53;;;;;;;24.53;11.27;;;-0.90;99.90;;;;;;4125875;28;20272;-61
2021/11/24 00:09:54;;;;;;;29.90;12.67;;;-0.90;99.90;;;;;;4125657;28;20334;-61
2021/11/24 00:11:55;;;;;;;25.47;12.33;;;-0.90;99.90;;;;;;4126492;28;20311;-61
2021/11/24 00:13:56;;;;;;;23.73;11.33;;;-0.90;99.90;;;;;;4125303;28;20672;-62
2021/11/24 00:15:57;;;;;;;24.67;11.03;;;-0.90;99.90;;;;;;4126248;28;20280;-61
2021/11/24 00:17:59;;;;;;;19.50;9.67;;;-0.90;99.90;;;;;;4125542;28;20326;-60
2021/11/24 00:20:00;;;;;;;24.03;10.97;;;-0.90;99.90;;;;;;4125513;28;20842;-63
2021/11/24 00:22:01;;;;;;;22.40;11.00;;;-0.90;99.90;;;;;;4125469;28;20276;-61
2021/11/24 00:24:03;;;;;;;25.10;11.63;;;-0.90;99.90;;;;;;4126228;28;20354;-62
2021/11/24 00:26:04;;;;;;;23.67;10.93;;;-0.90;99.90;;;;;;4127633;28;20280;-61
2021/11/24 00:28:05;;;;;;;24.23;11.93;;;-0.90;99.90;;;;;;4125899;28;20815;-61
2021/11/24 00:30:08;;;;;;;23.73;11.47;;;-0.90;99.90;;;;;;4125585;28;20284;-61
2021/11/24 00:32:09;;;;;;;21.43;10.60;;;-0.90;99.90;;;;;;4125179;28;20272;-63
2021/11/24 00:34:11;;;;;;;24.10;10.80;;;-0.90;99.90;;;;;;4125907;28;20276;-60
2021/11/24 00:36:12;;;;;;;20.03;10.10;;;-1.00;99.90;;;;;;4125131;28;20275;-59
2021/11/24 00:38:13;;;;;;;20.80;9.77;;;-1.00;99.90;;;;;;4125016;28;20295;-61
2021/11/24 00:40:15;;;;;;;16.13;9.17;;;-0.90;99.90;;;;;;4125287;28;20780;-61
2021/11/24 00:42:16;;;;;;;22.73;10.10;;;-0.90;99.90;;;;;;4126301;28;20288;-61
2021/11/24 00:44:17;;;;;;;15.77;9.00;;;-0.90;99.90;;;;;;4125227;28;20303;-61
2021/11/24 00:46:18;;;;;;;22.67;9.50;;;-0.90;99.90;;;;;;4125401;28;20268;-61
2021/11/24 00:48:21;;;;;;;19.77;9.40;;;-0.90;99.90;;;;;;4124807;28;20271;-61
2021/11/24 00:50:22;;;;;;;24.73;9.37;;;-0.90;99.90;;;;;;4125409;28;20280;-60
2021/11/24 00:52:23;;;;;;;20.50;10.03;;;-0.90;99.90;;;;;;4124442;28;20316;-61
2021/11/24 00:54:24;;;;;;;20.60;9.90;;;-0.90;99.90;;;;;;4125833;28;20901;-61
2021/11/24 00:56:25;;;;;;;20.50;10.77;;;-0.90;99.90;;;;;;4124438;28;20276;-61
2021/11/24 00:58:27;;;;;;;22.27;10.53;;;-0.90;99.90;;;;;;4125251;28;20268;-61
2021/11/24 01:00:29;;;;;;;22.87;10.23;;;-1.00;99.90;;;;;;4124145;28;21231;-61
2021/11/24 01:02:31;;;;;;;18.80;8.87;;;-1.00;99.90;;;;;;4125169;28;20276;-61
2021/11/24 01:04:32;;;;;;;20.10;9.63;;;-1.00;99.90;;;;;;4123344;28;20760;-61
2021/11/24 01:06:33;;;;;;;17.90;8.97;;;-1.00;99.90;;;;;;4123843;28;20342;-60
2021/11/24 01:08:34;;;;;;;22.60;8.87;;;-1.00;99.90;;;;;;4125177;28;20268;-61
2021/11/24 01:10:35;;;;;;;18.13;8.87;;;-1.10;99.90;;;;;;4125016;28;20752;-60
2021/11/24 01:12:38;;;;;;;18.20;8.43;;;-1.10;99.90;;;;;;4124998;28;20268;-59
2021/11/24 01:14:39;;;;;;;19.63;9.70;;;-1.10;99.90;;;;;;4124680;28;20272;-59
2021/11/24 01:16:42;;;;;;;16.90;8.00;;;-1.20;99.90;;;;;;4124375;28;20272;-61
2021/11/24 01:18:43;;;;;;;18.23;8.17;;;-1.10;99.90;;;;;;4123929;28;20256;-61
2021/11/24 01:20:48;;;;;;;15.73;7.37;;;-1.10;99.90;;;;;;4125008;28;20288;-61
2021/11/24 01:22:49;;;;;;;18.80;8.10;;;-1.10;99.90;;;;;;4122094;28;20284;-63
2021/11/24 01:24:50;;;;;;;13.40;7.00;;;-1.10;99.90;;;;;;4123939;28;20890;-61
2021/11/24 01:26:51;;;;;;;14.53;7.03;;;-1.00;99.90;;;;;;4124560;28;20280;-61
2021/11/24 01:28:52;;;;;;;17.33;7.93;;;-1.00;99.90;;;;;;4124161;28;20284;-61
2021/11/24 01:30:53;;;;;;;16.60;7.73;;;-0.90;99.90;;;;;;4124112;28;20683;-61
2021/11/24 01:32:55;;;;;;;13.37;7.20;;;-0.90;99.90;;;;;;4124280;28;20327;-61
2021/11/24 01:34:56;;;;;;;17.37;8.53;;;-0.90;99.90;;;;;;4124737;28;20264;-65
2021/11/24 01:36:57;;;;;;;23.00;10.07;;;-0.90;99.90;;;;;;4124771;28;20676;-57
2021/11/24 01:38:58;;;;;;;27.03;11.13;;;-0.90;99.90;;;;;;4124214;28;20284;-61
2021/11/24 01:40:59;;;;;;;25.03;12.20;;;-1.00;99.90;;;;;;4122653;28;20327;-59
2021/11/24 01:43:00;;;;;;;26.73;11.97;;;-1.00;99.90;;;;;;4124748;28;20322;-61
2021/11/24 01:45:03;;;;;;;23.47;9.90;;;-1.10;99.90;;;;;;4123887;28;20759;-61
2021/11/24 01:47:04;;;;;;;24.03;10.83;;;-1.20;99.90;;;;;;4124001;28;20272;-61
2021/11/24 01:49:06;;;;;;;21.43;10.47;;;-1.30;99.90;;;;;;4124179;28;20316;-61
2021/11/24 01:51:07;;;;;;;19.50;9.90;;;-1.30;99.90;;;;;;4124027;28;20345;-60
2021/11/24 01:53:08;;;;;;;24.20;10.37;;;-1.40;99.90;;;;;;4123402;28;20358;-61
2021/11/24 01:55:10;;;;;;;18.27;9.43;;;-1.40;99.90;;;;;;4123394;28;20292;-61
2021/11/24 01:57:16;;;;;;;18.20;9.13;;;-1.40;99.90;;;;;;4124087;28;20306;-60
2021/11/24 01:59:18;;;;;;;17.90;8.07;;;-1.40;99.90;;;;;;4124310;28;20755;-62
2021/11/24 02:01:19;;;;;;;19.07;8.73;;;-1.40;99.90;;;;;;4123360;28;20688;-61
2021/11/24 02:03:20;;;;;;;17.87;8.00;;;-1.40;99.90;;;;;;4122780;28;20324;-60
2021/11/24 02:05:22;;;;;;;19.53;7.70;;;-1.40;99.90;;;;;;4123751;28;20380;-59
2021/11/24 02:07:23;;;;;;;17.97;7.53;;;-1.40;99.90;;;;;;4123519;28;20346;-59
2021/11/24 02:09:24;;;;;;;14.23;7.37;;;-1.40;99.90;;;;;;4124229;28;20280;-62
2021/11/24 02:11:26;;;;;;;13.43;7.03;;;-1.40;99.90;;;;;;4124019;28;20260;-61
2021/11/24 02:13:27;;;;;;;17.67;7.83;;;-1.40;99.90;;;;;;4124251;28;20828;-60
2021/11/24 02:15:29;;;;;;;18.17;9.13;;;-1.40;99.90;;;;;;4123539;28;20268;-63
2021/11/24 02:17:30;;;;;;;14.80;8.83;;;-1.30;99.90;;;;;;4123899;28;20272;-62
2021/11/24 02:19:33;;;;;;;18.93;8.67;;;-1.30;99.90;;;;;;4123796;28;20319;-61
2021/11/24 02:21:35;;;;;;;18.23;9.37;;;-1.40;99.90;;;;;;4124090;28;20256;-60
2021/11/24 02:23:37;;;;;;;21.60;9.10;;;-1.40;99.90;;;;;;4121787;28;20280;-59
2021/11/24 02:25:40;;;;;;;21.43;9.30;;;-1.40;99.90;;;;;;4124512;28;20264;-60
2021/11/24 02:27:41;;;;;;;22.57;10.47;;;-1.40;99.90;;;;;;4123185;28;20260;-60
2021/11/24 02:29:46;;;;;;;21.90;10.60;;;-1.50;99.90;;;;;;4122784;28;20691;-58
2021/11/24 02:31:50;;;;;;;26.20;11.17;;;-1.60;99.90;;;;;;4123014;28;20748;-60
2021/11/24 02:33:53;;;;;;;25.23;11.17;;;-1.70;99.90;;;;;;4124151;28;20819;-61
2021/11/24 02:35:54;;;;;;;22.70;10.83;;;-1.70;99.90;;;;;;4123682;28;20287;-59
2021/11/24 02:37:55;;;;;;;21.47;10.20;;;-1.70;99.90;;;;;;4123620;28;20276;-62
2021/11/24 02:39:56;;;;;;;23.23;10.03;;;-1.70;99.90;;;;;;4122999;28;20296;-60
2021/11/24 02:41:58;;;;;;;19.30;10.20;;;-1.80;99.90;;;;;;4123913;28;20264;-61
2021/11/24 02:44:20;;;;;;;22.50;11.07;;;-1.70;99.90;;;;;;4123702;28;20323;-60
2021/11/24 02:46:24;;;;;;;21.40;9.67;;;-1.70;99.90;;;;;;4122597;28;20288;-60
2021/11/24 02:48:26;;;;;;;20.97;10.00;;;-1.70;99.90;;;;;;4123450;28;20798;-59
2021/11/24 02:50:27;;;;;;;24.67;10.83;;;-1.80;99.90;;;;;;4123447;28;20342;-59
2021/11/24 02:52:29;;;;;;;24.73;10.17;;;-1.80;99.90;;;;;;4123635;28;20250;-61
2021/11/24 02:54:30;;;;;;;19.83;9.63;;;-1.80;99.90;;;;;;4123072;28;20272;-58
2021/11/24 02:56:32;;;;;;;23.50;10.53;;;-1.80;99.90;;;;;;4121463;28;20322;-60
2021/11/24 02:58:33;;;;;;;20.90;10.30;;;-1.80;99.90;;;;;;4123279;28;20664;-60
2021/11/24 03:00:34;;;;;;;20.70;8.73;;;-1.80;99.90;;;;;;4122832;28;20280;-60
2021/11/24 03:02:35;;;;;;;20.17;8.50;;;-1.90;99.90;;;;;;4122095;28;20280;-60
2021/11/24 03:04:37;;;;;;;19.43;9.23;;;-1.90;99.90;;;;;;4123443;28;20327;-60
2021/11/24 03:06:39;;;;;;;18.40;8.50;;;-1.80;99.90;;;;;;4122454;28;20350;-61
2021/11/24 03:08:40;;;;;;;17.13;8.27;;;-1.90;99.90;;;;;;4123528;28;20279;-60
2021/11/24 03:10:41;;;;;;;20.17;9.80;;;-1.90;99.90;;;;;;4122951;28;20280;-61
2021/11/24 03:12:43;;;;;;;19.17;9.37;;;-1.80;99.90;;;;;;4123982;28;20276;-60
2021/11/24 03:14:44;;;;;;;18.97;9.10;;;-1.90;99.90;;;;;;4123053;28;20323;-61
2021/11/24 03:16:46;;;;;;;15.63;8.60;;;-1.90;99.90;;;;;;4123168;28;20362;-60
2021/11/24 03:18:47;;;;;;;21.40;9.30;;;-1.90;99.90;;;;;;4122732;28;20268;-60
2021/11/24 03:20:48;;;;;;;22.33;9.97;;;-1.90;99.90;;;;;;4122644;28;20296;-60
2021/11/24 03:22:50;;;;;;;19.30;9.20;;;-1.90;99.90;;;;;;4121989;28;20355;-60
2021/11/24 03:24:56;;;;;;;18.43;9.00;;;-1.90;99.90;;;;;;4122985;28;20346;-60
2021/11/24 03:26:57;;;;;;;23.93;9.63;;;-1.90;99.90;;;;;;4123120;28;20311;-61
2021/11/24 03:28:58;;;;;;;20.30;9.47;;;-1.90;99.90;;;;;;4122736;28;20276;-59
2021/11/24 03:31:00;;;;;;;20.00;9.60;;;-1.90;99.90;;;;;;4123206;28;20272;-60
2021/11/24 03:33:04;;;;;;;18.77;9.63;;;-1.90;99.90;;;;;;4122723;28;20330;-60
2021/11/24 03:35:07;;;;;;;20.23;9.30;;;-1.90;99.90;;;;;;4123451;28;20264;-58
2021/11/24 03:37:08;;;;;;;22.40;9.80;;;-1.90;99.90;;;;;;4122154;28;20268;-60
2021/11/24 03:39:09;;;;;;;21.90;9.77;;;-1.90;99.90;;;;;;4123427;28;20268;-61
2021/11/24 03:41:10;;;;;;;17.83;9.43;;;-1.90;99.90;;;;;;4123224;28;20300;-61
2021/11/24 03:43:11;;;;;;;19.20;9.17;;;-1.90;99.90;;;;;;4125871;28;20283;-61
2021/11/24 03:45:18;;;;;;;22.60;9.63;;;-1.90;99.90;;;;;;4125795;28;21406;-60
2021/11/24 03:47:19;;;;;;;20.90;9.67;;;-1.90;99.90;;;;;;4126494;28;20271;-60
2021/11/24 03:49:21;;;;;;;22.27;9.60;;;-1.90;99.90;;;;;;4125262;28;20312;-60
2021/11/24 03:51:22;;;;;;;17.23;8.50;;;-1.90;99.90;;;;;;4124286;28;20274;-60
2021/11/24 03:53:24;;;;;;;18.07;8.80;;;-1.90;99.90;;;;;;4125745;28;20260;-61
2021/11/24 03:55:25;;;;;;;14.40;7.07;;;-1.90;99.90;;;;;;4126113;28;20284;-61
2021/11/24 03:57:26;;;;;;;13.83;6.93;;;-1.90;99.90;;;;;;4126401;28;20268;-61
2021/11/24 03:59:28;;;;;;;14.10;7.87;;;-1.90;99.90;;;;;;4125423;28;20271;-60
2021/11/24 04:01:29;;;;;;;24.70;9.37;;;-1.90;99.90;;;;;;4125907;28;20308;-59
2021/11/24 04:03:30;;;;;;;25.17;9.80;;;-1.90;99.90;;;;;;4125561;28;20315;-61
2021/11/24 04:05:32;;;;;;;24.57;8.90;;;-1.90;99.90;;;;;;4126443;28;20346;-59
2021/11/24 04:07:33;;;;;;;19.50;8.50;;;-1.90;99.90;;;;;;4125542;28;20283;-60
2021/11/24 04:09:34;;;;;;;24.70;9.37;;;-2.00;99.90;;;;;;4125402;28;20280;-60
2021/11/24 04:11:36;;;;;;;17.30;8.27;;;-2.00;99.90;;;;;;4124381;28;20327;-62
2021/11/24 04:13:37;;;;;;;18.27;8.70;;;-2.00;99.90;;;;;;4125655;28;20851;-60
2021/11/24 04:15:38;;;;;;;26.00;10.63;;;-2.00;99.90;;;;;;4124981;28;20322;-61
2021/11/24 04:17:40;;;;;;;25.63;9.37;;;-2.00;99.90;;;;;;4125828;28;20292;-60
2021/11/24 04:19:41;;;;;;;19.50;8.57;;;-2.00;99.90;;;;;;4125287;28;20734;-58
2021/11/24 04:21:42;;;;;;;25.93;9.50;;;-2.00;99.90;;;;;;4125638;28;20346;-61
2021/11/24 04:23:44;;;;;;;22.33;10.30;;;-2.10;99.90;;;;;;4125208;28;20338;-61
2021/11/24 04:25:45;;;;;;;22.93;10.30;;;-2.10;99.90;;;;;;4125522;28;20272;-61
2021/11/24 04:27:47;;;;;;;24.40;11.33;;;-2.10;99.90;;;;;;4124906;28;21051;-60
2021/11/24 04:29:49;;;;;;;20.97;10.47;;;-2.20;99.90;;;;;;4125022;28;20323;-55
2021/11/24 04:31:50;;;;;;;27.87;12.13;;;-2.20;99.90;;;;;;4124674;28;20280;-61
2021/11/24 04:33:51;;;;;;;23.80;11.20;;;-2.30;99.90;;;;;;4125492;28;21165;-62
2021/11/24 04:35:52;;;;;;;27.53;10.93;;;-2.50;99.90;;;;;;4125537;28;20693;-60
2021/11/24 04:37:53;;;;;;;24.17;11.57;;;-2.50;99.90;;;;;;4124639;28;20326;-58
2021/11/24 04:39:54;;;;;;;24.20;11.17;;;-2.60;99.90;;;;;;4124969;28;20696;-60
2021/11/24 04:41:56;;;;;;;24.50;11.70;;;-2.60;99.90;;;;;;4124617;28;20311;-58
2021/11/24 04:43:57;;;;;;;23.87;12.27;;;-2.60;99.90;;;;;;4125396;28;20359;-59
2021/11/24 04:46:00;;;;;;;24.10;10.40;;;-2.60;99.90;;;;;;4124632;28;20272;-60
2021/11/24 04:48:01;;;;;;;26.60;10.63;;;-2.60;99.90;;;;;;4125659;28;20256;-61
2021/11/24 04:50:03;;;;;;;26.27;11.43;;;-2.60;99.90;;;;;;4124881;28;20296;-60
2021/11/24 04:52:06;;;;;;;21.67;10.93;;;-2.70;99.90;;;;;;4125136;28;20276;-62
2021/11/24 04:54:07;;;;;;;25.33;13.20;;;-2.70;99.90;;;;;;4123941;28;20417;-63
2021/11/24 04:56:08;;;;;;;21.80;10.17;;;-2.70;99.90;;;;;;4124318;28;20272;-62
2021/11/24 04:58:10;;;;;;;29.77;11.50;;;-2.70;99.90;;;;;;4124698;28;20264;-60
2021/11/24 05:00:17;;;;;;;25.37;11.50;;;-2.70;99.90;;;;;;4124155;28;20323;-61
2021/11/24 05:02:18;;;;;;;23.37;12.00;;;-2.80;99.90;;;;;;4123463;28;20280;-60
2021/11/24 05:04:21;;;;;;;27.83;11.37;;;-2.80;99.90;;;;;;4124817;28;20272;-58
2021/11/24 05:06:23;;;;;;;23.40;10.47;;;-2.90;99.90;;;;;;4123137;28;20296;-60
2021/11/24 05:08:24;;;;;;;20.37;9.43;;;-2.90;99.90;;;;;;4121902;28;20330;-58
2021/11/24 05:10:26;;;;;;;19.83;9.17;;;-2.90;99.90;;;;;;4120889;28;20288;-61
2021/11/24 05:12:28;;;;;;;23.40;11.63;;;-2.90;99.90;;;;;;4120140;28;20284;-62
2021/11/24 05:14:33;;;;;;;26.13;12.37;;;-2.90;99.90;;;;;;4119884;28;20288;-62
2021/11/24 05:16:36;;;;;;;30.10;12.63;;;-3.00;99.90;;;;;;4122670;28;20277;-58
2021/11/24 05:18:40;;;;;;;31.37;13.07;;;-3.00;99.90;;;;;;4120167;28;20296;-61
2021/11/24 05:20:42;;;;;;;35.30;15.17;;;-3.00;99.90;;;;;;4118867;28;20462;-62
2021/11/24 05:22:44;;;;;;;38.43;16.90;;;-3.10;99.90;;;;;;4119145;28;20288;-60
2021/11/24 05:24:45;;;;;;;34.20;17.23;;;-3.00;99.90;;;;;;4118326;28;20291;-63
2021/11/24 05:26:47;;;;;;;39.67;18.57;;;-3.10;99.90;;;;;;4118333;28;20687;-61
2021/11/24 05:28:48;;;;;;;41.70;19.43;;;-3.10;99.90;;;;;;4118567;28;20338;-62
2021/11/24 05:30:49;;;;;;;37.00;17.03;;;-3.10;99.90;;;;;;4116547;28;20272;-65
2021/11/24 05:32:50;;;;;;;35.40;17.40;;;-3.00;99.90;;;;;;4111766;28;20273;-64
2021/11/24 05:34:52;;;;;;;37.47;19.03;;;-3.00;99.90;;;;;;4110398;28;20281;-64
2021/11/24 05:36:53;;;;;;;32.90;16.90;;;-3.00;99.90;;;;;;4115617;28;20352;-58
2021/11/24 05:38:54;;;;;;;41.77;17.60;;;-3.00;99.90;;;;;;4116618;28;20276;-61
2021/11/24 05:40:55;;;;;;;33.40;16.60;;;-2.90;99.90;;;;;;4118573;28;20467;-60
2021/11/24 05:42:56;;;;;;;28.63;14.30;;;-2.90;99.90;;;;;;4118154;28;20342;-59
2021/11/24 05:45:27;;;;;;;31.00;14.07;;;-2.90;99.90;;;;;;4119741;28;20285;-61
2021/11/24 05:47:50;;;;;;;34.63;15.60;;;-3.00;99.90;;;;;;4118844;28;20284;-61
2021/11/24 05:49:43;;;;;;;26.73;12.40;;;-3.00;99.90;;;;;;4119335;28;21163;-61
2021/11/24 05:51:44;;;;;;;33.33;15.63;;;-3.00;99.90;;;;;;4119031;28;20338;-61
2021/11/24 05:53:45;;;;;;;28.43;12.70;;;-3.00;99.90;;;;;;4120465;28;20819;-60
2021/11/24 05:55:47;;;;;;;32.43;14.60;;;-2.90;99.90;;;;;;4120190;28;20794;-60
2021/11/24 05:57:49;;;;;;;28.43;13.43;;;-2.70;99.90;;;;;;4123596;28;20276;-58
2021/11/24 05:59:51;;;;;;;38.53;14.37;;;-2.60;99.90;;;;;;4122921;28;20346;-57
2021/11/24 06:01:52;;;;;;;31.43;14.07;;;-2.30;99.90;;;;;;4123192;28;20630;-60
2021/11/24 06:03:53;;;;;;;33.13;15.37;;;-2.10;99.90;;;;;;4123356;28;20268;-61
2021/11/24 06:05:54;;;;;;;38.60;15.47;;;-1.90;99.90;;;;;;4122128;28;20358;-59
2021/11/24 06:07:56;;;;;;;34.73;14.90;;;-1.70;99.90;;;;;;4122964;28;20838;-60
2021/11/24 06:09:57;;;;;;;38.07;14.80;;;-1.30;99.90;;;;;;4123577;28;20288;-63
2021/11/24 06:11:58;;;;;;;32.10;14.43;;;-0.90;99.90;;;;;;4123111;28;20268;-61
2021/11/24 06:14:00;;;;;;;39.33;16.90;;;-0.50;99.90;;;;;;4123322;28;20272;-61
2021/11/24 06:16:01;;;;;;;40.23;17.10;;;-0.20;99.90;;;;;;4123028;28;20335;-61
2021/11/24 06:18:02;;;;;;;31.27;15.13;;;0.00;99.90;;;;;;4123662;28;20264;-61
2021/11/24 06:20:04;;;;;;;44.53;17.07;;;0.20;99.90;;;;;;4123195;28;20268;-61
2021/11/24 06:22:05;;;;;;;31.47;14.20;;;0.40;99.90;;;;;;4122326;28;20437;-60
2021/11/24 06:24:06;;;;;;;33.43;14.77;;;0.70;99.90;;;;;;4123095;28;20279;-61
2021/11/24 06:26:08;;;;;;;31.37;14.93;;;0.90;99.90;;;;;;4122645;28;20284;-60
2021/11/24 06:28:12;;;;;;;33.80;15.47;;;1.20;99.90;;;;;;4123902;28;20330;-62
2021/11/24 06:30:17;;;;;;;42.00;16.93;;;1.40;99.90;;;;;;4122803;28;20751;-61
2021/11/24 06:32:18;;;;;;;37.37;15.60;;;1.40;99.90;;;;;;4123748;28;20264;-61
2021/11/24 06:34:20;;;;;;;31.43;16.20;;;1.60;99.90;;;;;;4122503;28;20279;-61
2021/11/24 06:36:24;;;;;;;41.73;17.47;;;1.80;99.90;;;;;;4123547;28;20268;-61
2021/11/24 06:38:25;;;;;;;33.57;17.37;;;1.90;99.90;;;;;;4122628;28;20276;-61
2021/11/24 06:40:26;;;;;;;37.70;19.20;;;2.20;99.90;;;;;;4123620;28;20323;-61
2021/11/24 06:42:28;;;;;;;41.07;20.47;;;2.30;99.90;;;;;;4122828;28;20841;-62
2021/11/24 06:44:29;;;;;;;47.70;22.17;;;2.70;99.90;;;;;;4123091;28;20264;-61
2021/11/24 06:46:33;;;;;;;45.57;22.40;;;3.10;99.90;;;;;;4123167;28;20264;-62
2021/11/24 06:48:34;;;;;;;39.70;20.70;;;3.40;99.90;;;;;;4123000;28;20038;-61
2021/11/24 06:50:35;;;;;;;36.70;15.70;;;3.80;99.90;;;;;;4123072;28;20034;-61
2021/11/24 06:52:37;;;;;;;29.57;15.13;;;3.90;99.90;;;;;;4123215;28;20022;-63
2021/11/24 06:54:38;;;;;;;25.30;14.70;;;3.80;99.90;;;;;;4122771;28;20038;-61
2021/11/24 06:56:39;;;;;;;27.13;15.10;;;3.50;99.90;;;;;;4122863;28;20038;-62
2021/11/24 06:58:40;;;;;;;33.90;16.03;;;3.40;99.90;;;;;;4121597;28;20038;-62
2021/11/24 07:00:41;;;;;;;30.47;16.63;;;3.50;99.90;;;;;;4122413;28;20069;-62
2021/11/24 07:02:42;;;;;;;44.57;18.17;;;3.60;99.90;;;;;;4123349;28;20065;-62
2021/11/24 07:04:44;;;;;;;41.33;17.37;;;3.60;99.90;;;;;;4122144;28;20081;-62
2021/11/24 07:06:45;;;;;;;44.67;18.47;;;3.70;99.90;;;;;;4122968;28;20446;-62
2021/11/24 07:08:47;;;;;;;41.87;17.80;;;3.90;99.90;;;;;;4122546;28;20093;-61
2021/11/24 07:10:48;;;;;;;46.83;18.43;;;3.80;99.90;;;;;;4122603;28;20375;-62
2021/11/24 07:12:50;;;;;;;37.73;19.13;;;3.50;99.90;;;;;;4122851;28;20034;-62
2021/11/24 07:14:53;;;;;;;40.87;18.37;;;3.50;99.90;;;;;;4122716;28;20116;-62
2021/11/24 07:16:54;;;;;;;39.83;18.30;;;3.30;99.90;;;;;;4127249;28;20121;-61
2021/11/24 07:18:55;;;;;;;45.90;18.80;;;3.10;99.90;;;;;;4128284;28;20030;-62
2021/11/24 07:20:56;;;;;;;42.40;18.83;;;3.30;99.90;;;;;;4127628;28;20096;-61
2021/11/24 07:22:58;;;;;;;35.50;18.17;;;3.50;99.90;;;;;;4127676;28;20092;-60
2021/11/24 07:25:00;;;;;;;38.47;18.70;;;3.60;99.90;;;;;;4127830;28;20042;-61
2021/11/24 07:27:01;;;;;;;41.07;16.87;;;3.80;99.90;;;;;;4128222;28;20092;-61
2021/11/24 07:29:02;;;;;;;33.83;17.40;;;3.90;99.90;;;;;;4127900;28;20093;-61
2021/11/24 07:31:03;;;;;;;40.73;18.50;;;4.00;99.90;;;;;;4126974;28;20046;-61
2021/11/24 07:33:04;;;;;;;36.07;18.70;;;4.10;99.90;;;;;;4128200;28;20030;-61
2021/11/24 07:35:07;;;;;;;35.93;17.97;;;4.30;99.90;;;;;;4127934;28;20038;-61
2021/11/24 07:37:08;;;;;;;42.93;17.27;;;4.30;99.90;;;;;;4127938;28;20478;-61
2021/11/24 07:39:09;;;;;;;38.20;17.83;;;4.20;99.90;;;;;;4127181;28;20034;-61
2021/11/24 07:41:10;;;;;;;32.47;16.90;;;4.20;99.90;;;;;;4127862;28;20062;-61
2021/11/24 07:43:12;;;;;;;40.57;16.07;;;4.30;99.90;;;;;;4127956;28;20037;-61
2021/11/24 07:45:13;;;;;;;32.43;16.87;;;4.10;99.90;;;;;;4128277;28;20034;-61
2021/11/24 07:47:14;;;;;;;34.67;16.97;;;4.10;99.90;;;;;;4128828;28;20031;-61
2021/11/24 07:49:15;;;;;;;32.47;14.97;;;4.20;99.90;;;;;;4127948;28;20105;-61
2021/11/24 07:51:17;;;;;;;29.77;15.67;;;4.10;99.90;;;;;;4128103;28;20124;-61
2021/11/24 07:53:18;;;;;;;29.00;13.20;;;4.20;99.90;;;;;;4127852;28;20442;-61
2021/11/24 07:55:20;;;;;;;24.60;11.47;;;4.30;99.90;;;;;;4128015;28;20451;-61
2021/11/24 07:57:21;;;;;;;26.13;12.17;;;4.30;99.90;;;;;;4127897;28;20038;-61
2021/11/24 07:59:22;;;;;;;26.30;12.70;;;4.40;99.90;;;;;;4128341;28;20264;-62
2021/11/24 08:01:23;;;;;;;26.70;12.37;;;4.60;99.90;;;;;;4125522;28;20843;-60
2021/11/24 08:03:24;;;;;;;21.73;11.73;;;4.70;99.90;;;;;;4128379;28;20535;-61
2021/11/24 08:05:25;;;;;;;22.37;12.93;;;4.70;99.90;;;;;;4126857;28;20318;-60
2021/11/24 08:07:26;;;;;;;22.10;11.57;;;4.90;99.90;;;;;;4128314;28;20695;-62
2021/11/24 08:09:28;;;;;;;20.73;11.03;;;4.80;99.90;;;;;;4127356;28;20326;-60
2021/11/24 08:11:29;;;;;;;26.57;12.30;;;4.80;99.90;;;;;;4128209;28;21004;-61
2021/11/24 08:13:30;;;;;;;29.10;14.77;;;4.80;99.90;;;;;;4127300;28;20346;-61
2021/11/24 08:15:32;;;;;;;26.87;12.73;;;4.70;99.90;;;;;;4127479;28;20280;-61
2021/11/24 08:17:34;;;;;;;26.97;13.27;;;4.70;99.90;;;;;;4127735;28;20660;-61
2021/11/24 08:19:35;;;;;;;27.63;13.30;;;4.70;99.90;;;;;;4127357;28;20284;-65
2021/11/24 08:21:37;;;;;;;23.27;12.77;;;4.50;99.90;;;;;;4127549;28;20768;-61
2021/11/24 08:23:38;;;;;;;26.63;12.77;;;4.40;99.90;;;;;;4127607;28;20276;-61
2021/11/24 08:25:39;;;;;;;23.77;11.47;;;4.20;99.90;;;;;;4127534;28;20280;-62
2021/11/24 08:27:40;;;;;;;26.90;12.07;;;3.80;99.90;;;;;;4126323;28;20310;-64
2021/11/24 08:29:42;;;;;;;30.73;14.27;;;3.80;99.90;;;;;;4124711;28;20264;-61
2021/11/24 08:31:43;;;;;;;26.73;12.63;;;4.20;99.90;;;;;;4124411;28;20252;-62
2021/11/24 08:33:44;;;;;;;31.77;14.60;;;4.00;99.90;;;;;;4125605;28;20316;-61
2021/11/24 08:35:45;;;;;;;36.70;15.97;;;3.60;99.90;;;;;;4123891;28;20264;-61
2021/11/24 08:37:47;;;;;;;28.37;14.80;;;3.30;99.90;;;;;;4124563;28;20260;-62
2021/11/24 08:39:48;;;;;;;34.87;15.60;;;3.30;99.90;;;;;;4123351;28;20264;-61
2021/11/24 08:41:49;;;;;;;31.10;13.63;;;3.20;99.90;;;;;;4124641;28;20362;-62
2021/11/24 08:43:50;;;;;;;30.20;13.63;;;3.10;99.90;;;;;;4124755;28;20676;-62
2021/11/24 08:45:52;;;;;;;25.97;13.17;;;3.00;99.90;;;;;;4124858;28;20268;-59
2021/11/24 08:47:53;;;;;;;30.13;12.70;;;2.90;99.90;;;;;;4124618;28;20323;-60
2021/11/24 08:49:54;;;;;;;27.50;13.20;;;3.00;99.90;;;;;;4124204;28;20334;-60
2021/11/24 08:51:55;;;;;;;21.93;11.70;;;3.10;99.90;;;;;;4125043;28;20268;-60
2021/11/24 08:53:56;;;;;;;28.70;13.07;;;3.20;99.90;;;;;;4124109;28;20272;-61
2021/11/24 08:55:58;;;;;;;21.97;10.90;;;3.30;99.90;;;;;;4124958;28;20272;-60
2021/11/24 08:57:59;;;;;;;28.87;11.47;;;3.40;99.90;;;;;;4124414;28;20323;-61
2021/11/24 09:00:00;;;;;;;23.40;10.37;;;3.40;99.90;;;;;;4124241;28;20779;-61
2021/11/24 09:02:02;;;;;;;20.10;9.03;;;3.40;99.90;;;;;;4123988;28;20292;-61
2021/11/24 09:04:04;;;;;;;19.33;8.60;;;3.30;99.90;;;;;;4124382;28;20331;-61
2021/11/24 09:06:06;;;;;;;18.40;8.23;;;3.20;99.90;;;;;;4122321;28;20384;-63
2021/11/24 09:08:08;;;;;;;15.60;8.73;;;3.00;99.90;;;;;;4124756;28;20284;-61
2021/11/24 09:10:09;;;;;;;19.83;8.63;;;2.90;99.90;;;;;;4124039;28;20815;-62
2021/11/24 09:12:10;;;;;;;17.87;8.70;;;2.90;99.90;;;;;;4124953;28;20386;-63
2021/11/24 09:14:11;;;;;;;22.53;9.67;;;2.90;99.90;;;;;;4123869;28;20652;-60
2021/11/24 09:16:13;;;;;;;20.47;9.27;;;3.00;99.90;;;;;;4124736;28;20284;-61
2021/11/24 09:18:14;;;;;;;21.20;9.70;;;3.00;99.90;;;;;;4124029;28;20280;-61
2021/11/24 09:20:16;;;;;;;16.97;8.90;;;3.00;99.90;;;;;;4124231;28;20310;-61
2021/11/24 09:22:18;;;;;;;18.30;9.60;;;3.10;99.90;;;;;;4123939;28;20347;-61
2021/11/24 09:24:25;;;;;;;18.87;9.47;;;3.30;99.90;;;;;;4123902;28;20684;-61
2021/11/24 09:26:31;;;;;;;18.47;9.20;;;3.30;99.90;;;;;;4124465;28;20686;-61
2021/11/24 09:28:34;;;;;;;18.43;9.03;;;3.30;99.90;;;;;;4123830;28;20335;-61
2021/11/24 09:30:37;;;;;;;24.80;11.03;;;3.30;99.90;;;;;;4124089;28;20276;-59
2021/11/24 09:32:41;;;;;;;17.60;9.80;;;3.30;99.90;;;;;;4124308;28;20729;-62
2021/11/24 09:34:42;;;;;;;19.20;10.33;;;3.40;99.90;;;;;;4122993;28;20276;-63
2021/11/24 09:36:43;;;;;;;22.27;11.37;;;3.40;99.90;;;;;;4123922;28;20328;-61
2021/11/24 09:38:44;;;;;;;19.73;10.43;;;3.40;99.90;;;;;;4123153;28;20338;-61
2021/11/24 09:40:48;;;;;;;17.73;10.57;;;3.40;99.90;;;;;;4123209;28;20330;-61
2021/11/24 09:42:53;;;;;;;17.50;10.13;;;3.40;99.90;;;;;;4123657;28;20338;-62
2021/11/24 09:44:56;;;;;;;18.87;9.17;;;3.50;99.90;;;;;;4123286;28;20272;-61
2021/11/24 09:46:59;;;;;;;19.30;10.13;;;3.50;99.90;;;;;;4124070;28;20300;-61
2021/11/24 09:49:03;;;;;;;19.20;9.77;;;3.50;99.90;;;;;;4123070;28;20272;-61
2021/11/24 09:51:05;;;;;;;22.00;11.57;;;3.50;99.90;;;;;;4123529;28;21028;-63
2021/11/24 09:53:12;;;;;;;21.00;11.63;;;3.60;99.90;;;;;;4122726;28;20338;-61
2021/11/24 09:55:13;;;;;;;19.10;11.33;;;3.50;99.90;;;;;;4123325;28;20354;-62
2021/11/24 09:57:17;;;;;;;20.80;9.80;;;3.60;99.90;;;;;;4123403;28;20292;-61
2021/11/24 09:59:18;;;;;;;21.43;10.03;;;3.70;99.90;;;;;;4123024;28;20271;-60
2021/11/24 10:01:19;;;;;;;16.73;9.47;;;3.70;99.90;;;;;;4122484;28;20272;-63
2021/11/24 10:03:21;;;;;;;18.30;9.10;;;3.80;99.90;;;;;;4123585;28;20264;-60
2021/11/24 10:05:24;;;;;;;20.83;9.60;;;3.80;99.90;;;;;;4123594;28;20685;-61
2021/11/24 10:07:25;;;;;;;19.23;10.37;;;3.80;99.90;;;;;;4123379;28;21414;-61
2021/11/24 10:09:26;;;;;;;16.13;8.83;;;4.00;99.90;;;;;;4123251;28;20276;-60
2021/11/24 10:11:27;;;;;;;23.37;10.30;;;4.10;99.90;;;;;;4122745;28;20268;-60
2021/11/24 10:13:29;;;;;;;19.17;9.67;;;4.20;99.90;;;;;;4123515;28;20276;-61
2021/11/24 10:15:40;;;;;;;16.73;9.53;;;4.20;99.90;;;;;;4123126;28;20676;-64
2021/11/24 10:17:42;;;;;;;21.33;9.53;;;4.20;99.90;;;;;;4123732;28;20272;-63
2021/11/24 10:20:20;;;;;;;17.07;8.90;;;4.20;99.90;;;;;;4122957;28;20729;-61
2021/11/24 10:22:21;;;;;;;15.83;8.10;;;4.40;99.90;;;;;;4123049;28;20296;-61
2021/11/24 10:24:41;;;;;;;18.47;8.53;;;4.40;99.90;;;;;;4123119;28;20279;-62
2021/11/24 10:26:43;;;;;;;16.33;8.35;;;4.50;99.90;;;;;;4122913;28;21186;-63